Ashley, Louisiana
Current Conditions -  °F | °C
As of 10:53 AM on Sunday 21 Dec 2014 (Local Time) from KTVR Reporting Station
Clear Clear  
Wind Chill: 53°   Ceiling: Unl
Heat Index: 53°   Visibility: 10mi
Dew Point: 43°   Wind: 3mph
Humidity: 69%   Direction: 120°ESE
Pressure: 30.15"   Gusts: NA
Location:  32.3599°N, 91.2529°W
Report Text: KTVR 211653Z AUTO 12003KT 10SM CLR 12/06 A3015 RMK AO2 SLP215 T01170061
Loading
Personal Weather Stations






























Interactive Weather Map New forecast layout! Learn more

10-Day Weather Forecast

Advertisements
Track Severe Weather on mobile